Time;durP1;ratioP1;P1;durP2;ratioP2;P2;SDS_P1;SDS_P2;PMS_P1;PMS_P2;Temp;Humidity;BMP_temperature;BMP_pressure;BME280_temperature;BME280_humidity;BME280_pressure;Samples;Min_cycle;Max_cycle;Signal;HPM_P1;HPM_P2
2021/12/17 00:00:59;;;;;;;19.70;8.35;;;7.30;99.90;;;;;;5057137;28;20025;-75
2021/12/17 00:03:37;;;;;;;18.15;7.88;;;7.30;99.90;;;;;;5056866;28;20041;-75
2021/12/17 00:06:12;;;;;;;15.77;7.50;;;7.30;99.90;;;;;;5056828;28;20013;-75
2021/12/17 00:08:40;;;;;;;18.83;8.15;;;7.30;99.90;;;;;;5039296;28;20267;-75
2021/12/17 00:11:06;;;;;;;18.35;7.70;;;7.40;99.90;;;;;;5056712;28;20025;-75
2021/12/17 00:13:33;;;;;;;18.88;7.93;;;7.30;99.90;;;;;;5056562;28;20066;-75
2021/12/17 00:15:59;;;;;;;16.13;7.38;;;7.40;99.90;;;;;;5037908;28;20024;-75
2021/12/17 00:18:34;;;;;;;14.63;5.97;;;7.40;99.90;;;;;;5057172;28;20029;-75
2021/12/17 00:40:21;;;;;;;19.33;7.78;;;7.40;99.90;;;;;;5038703;28;20154;-75
2021/12/17 00:43:57;;;;;;;16.88;7.97;;;7.30;99.90;;;;;;5056826;28;20036;-75
2021/12/17 00:48:47;;;;;;;17.50;8.15;;;7.30;99.90;;;;;;5056512;28;20044;-75
2021/12/17 00:54:18;;;;;;;14.52;7.18;;;7.40;99.90;;;;;;5055488;28;20452;-75
2021/12/17 00:56:44;;;;;;;16.55;6.45;;;7.30;99.90;;;;;;5055579;28;20029;-75
2021/12/17 00:59:09;;;;;;;19.80;7.05;;;7.40;99.90;;;;;;5055155;28;20037;-74
2021/12/17 01:01:35;;;;;;;18.02;7.10;;;7.30;99.90;;;;;;5055335;28;20040;-74
2021/12/17 01:04:01;;;;;;;19.33;7.20;;;7.30;99.90;;;;;;5055380;28;20021;-74
2021/12/17 02:00:22;;;;;;;16.08;6.13;;;7.40;99.90;;;;;;5015410;28;20058;-76
2021/12/17 02:02:51;;;;;;;12.65;6.25;;;7.50;99.90;;;;;;5013292;28;20026;-76
2021/12/17 02:05:17;;;;;;;13.35;6.13;;;7.50;99.90;;;;;;4993982;28;20018;-76
2021/12/17 02:07:45;;;;;;;11.18;5.28;;;7.50;99.90;;;;;;4993973;28;20037;-76
2021/12/17 02:19:27;;;;;;;14.15;5.50;;;7.40;99.90;;;;;;4995747;28;20077;-76
2021/12/17 02:32:03;;;;;;;10.80;5.00;;;7.50;99.90;;;;;;5014851;28;20033;-76
2021/12/17 02:37:05;;;;;;;8.30;4.13;;;7.50;99.90;;;;;;5015041;28;20030;-76
2021/12/17 02:47:42;;;;;;;9.30;4.43;;;7.50;99.90;;;;;;5014708;28;20036;-76
2021/12/17 02:50:10;;;;;;;9.05;4.55;;;7.50;99.90;;;;;;5014054;28;20030;-76
2021/12/17 02:52:38;;;;;;;9.15;4.18;;;7.50;99.90;;;;;;5013721;28;20092;-76
2021/12/17 02:55:05;;;;;;;10.50;4.63;;;7.50;99.90;;;;;;5014127;28;20030;-76
2021/12/17 02:57:32;;;;;;;11.45;4.25;;;7.50;99.90;;;;;;5013917;28;20489;-76
2021/12/17 02:59:59;;;;;;;9.88;4.18;;;7.50;99.90;;;;;;5013601;28;20478;-76
2021/12/17 03:02:28;;;;;;;12.73;4.85;;;7.50;99.90;;;;;;5014097;28;20454;-76
2021/12/17 03:04:54;;;;;;;;;;;7.50;99.90;;;;;;5014519;28;20386;-76
2021/12/17 03:07:19;;;;;;;14.68;4.78;;;7.50;99.90;;;;;;5014018;28;19906;-76
2021/12/17 03:10:03;;;;;;;13.90;4.80;;;7.50;99.90;;;;;;5014027;28;20026;-76
2021/12/17 03:12:37;;;;;;;9.82;4.07;;;7.50;99.90;;;;;;5012861;28;20029;-76
2021/12/17 03:23:42;;;;;;;9.48;3.92;;;7.60;99.90;;;;;;4991997;28;20135;-76
2021/12/17 03:26:13;;;;;;;10.93;4.45;;;7.60;99.90;;;;;;5013732;28;20026;-76
2021/12/17 03:28:41;;;;;;;10.95;4.47;;;7.60;99.90;;;;;;5014024;28;20014;-76
2021/12/17 03:31:08;;;;;;;8.43;3.73;;;7.60;99.90;;;;;;5013421;28;20033;-77
2021/12/17 03:33:34;;;;;;;10.13;4.07;;;7.60;99.90;;;;;;5013493;28;20449;-76
2021/12/17 03:36:00;;;;;;;12.27;4.82;;;7.60;99.90;;;;;;5013363;28;20049;-76
2021/12/17 03:38:26;;;;;;;11.88;4.50;;;7.60;99.90;;;;;;5014369;28;20069;-76
2021/12/17 03:41:03;;;;;;;13.50;5.47;;;7.60;99.90;;;;;;5013549;28;20046;-76
2021/12/17 03:43:31;;;;;;;14.02;5.82;;;7.50;99.90;;;;;;4996033;28;20136;-76
2021/12/17 03:45:56;;;;;;;15.68;6.78;;;7.60;99.90;;;;;;5013738;28;20030;-76
2021/12/17 03:48:23;;;;;;;15.85;6.10;;;7.60;99.90;;;;;;5013703;28;20163;-76
2021/12/17 03:50:49;;;;;;;14.77;5.65;;;7.60;99.90;;;;;;5015585;28;20080;-76
2021/12/17 03:53:14;;;;;;;20.73;7.03;;;7.60;99.90;;;;;;5016977;28;20437;-76
2021/12/17 03:55:40;;;;;;;15.32;6.60;;;7.60;99.90;;;;;;5016854;28;20026;-76
2021/12/17 03:58:06;;;;;;;18.35;7.03;;;7.60;99.90;;;;;;5015846;28;20402;-76
2021/12/17 04:00:32;;;;;;;19.77;7.05;;;7.60;99.90;;;;;;5017060;28;20025;-76
2021/12/17 04:02:58;;;;;;;17.70;7.05;;;7.60;99.90;;;;;;5017396;28;20113;-76
2021/12/17 04:05:24;;;;;;;21.60;6.50;;;7.60;99.90;;;;;;5012648;28;20057;-76
2021/12/17 04:07:50;;;;;;;16.83;7.45;;;7.60;99.90;;;;;;5001973;28;20021;-76
2021/12/17 04:10:18;;;;;;;25.67;8.20;;;7.60;99.90;;;;;;5016939;28;20034;-76
2021/12/17 04:15:16;;;;;;;27.00;8.10;;;7.70;99.90;;;;;;5017181;28;20033;-76
2021/12/17 04:17:46;;;;;;;26.88;7.97;;;7.70;99.90;;;;;;5016634;28;20018;-76
2021/12/17 04:20:12;;;;;;;21.45;8.02;;;7.70;99.90;;;;;;4999202;28;20034;-76
2021/12/17 04:22:37;;;;;;;19.38;7.45;;;7.70;99.90;;;;;;5016594;28;20470;-76
2021/12/17 04:25:04;;;;;;;21.52;7.85;;;7.70;99.90;;;;;;5014934;28;20064;-76
2021/12/17 04:27:29;;;;;;;21.60;7.72;;;7.70;99.90;;;;;;5016343;28;20044;-76
2021/12/17 04:29:56;;;;;;;20.63;7.93;;;7.70;99.90;;;;;;5014881;28;20116;-76
2021/12/17 04:32:23;;;;;;;20.98;8.45;;;7.70;99.90;;;;;;5014431;28;20029;-75
2021/12/17 04:34:48;;;;;;;21.95;7.97;;;7.70;99.90;;;;;;5014747;28;20022;-76
2021/12/17 04:37:14;;;;;;;19.15;7.35;;;7.80;99.90;;;;;;5016134;28;20445;-76
2021/12/17 04:39:40;;;;;;;21.15;7.68;;;7.80;99.90;;;;;;5014566;28;20561;-75
2021/12/17 04:42:23;;;;;;;25.40;8.05;;;7.80;99.90;;;;;;5015920;28;20097;-75
2021/12/17 04:44:55;;;;;;;21.38;8.05;;;7.80;99.90;;;;;;5016100;28;20367;-76
2021/12/17 04:58:20;;;;;;;11.93;3.92;;;7.80;99.90;;;;;;5016162;28;20088;-76
2021/12/17 05:00:46;;;;;;;11.98;4.43;;;7.80;99.90;;;;;;5015410;28;20053;-76
2021/12/17 05:03:11;;;;;;;10.90;3.60;;;7.80;99.90;;;;;;5014958;28;20018;-76
2021/12/17 05:05:37;;;;;;;9.68;3.30;;;7.80;99.90;;;;;;5011936;28;20522;-75
2021/12/17 05:08:08;;;;;;;10.32;3.17;;;7.80;99.90;;;;;;4978375;28;20038;-75
2021/12/17 05:19:15;;;;;;;13.40;3.35;;;7.70;99.90;;;;;;5001865;28;20037;-75
2021/12/17 05:21:40;;;;;;;10.60;3.50;;;7.70;99.90;;;;;;5005432;28;20030;-76
2021/12/17 05:24:06;;;;;;;7.18;2.75;;;7.70;99.90;;;;;;5015077;28;20030;-76
2021/12/17 05:26:32;;;;;;;11.13;3.97;;;7.70;99.90;;;;;;5014981;28;20030;-76
2021/12/17 05:28:57;;;;;;;12.93;4.10;;;7.70;99.90;;;;;;5014676;28;20076;-76
2021/12/17 05:31:23;;;;;;;13.43;3.08;;;7.70;99.90;;;;;;5001421;28;20490;-76
2021/12/17 05:33:50;;;;;;;6.68;2.75;;;7.70;99.90;;;;;;5015014;28;20026;-76
2021/12/17 05:36:16;;;;;;;7.65;2.45;;;7.70;99.90;;;;;;4997375;28;20077;-76
2021/12/17 05:38:41;;;;;;;7.30;2.90;;;7.70;99.90;;;;;;5014845;28;20026;-76
2021/12/17 05:41:07;;;;;;;13.07;3.88;;;7.70;99.90;;;;;;4996879;28;20022;-76
2021/12/17 05:43:36;;;;;;;8.88;2.15;;;7.70;99.90;;;;;;5013543;28;20022;-75
2021/12/17 05:48:32;;;;;;;6.35;2.60;;;7.70;99.90;;;;;;5015494;28;20034;-76
2021/12/17 05:51:00;;;;;;;5.55;1.92;;;7.70;99.90;;;;;;4996863;28;20076;-76
2021/12/17 05:53:28;;;;;;;7.88;2.80;;;7.70;99.90;;;;;;5014354;28;20033;-76
2021/12/17 05:55:54;;;;;;;6.07;1.58;;;7.70;99.90;;;;;;5014386;28;20018;-75
2021/12/17 05:58:20;;;;;;;4.93;1.80;;;7.70;99.90;;;;;;5013979;28;20113;-75
2021/12/17 06:00:45;;;;;;;4.35;1.52;;;7.70;99.90;;;;;;5014316;28;20053;-76
2021/12/17 06:03:12;;;;;;;4.22;1.35;;;7.70;99.90;;;;;;5014442;28;20026;-76
2021/12/17 06:05:38;;;;;;;6.82;1.80;;;7.70;99.90;;;;;;5014057;28;20041;-76
2021/12/17 06:08:04;;;;;;;5.35;1.50;;;7.70;99.90;;;;;;4997275;28;20470;-76
2021/12/17 06:10:31;;;;;;;6.15;1.63;;;7.70;99.90;;;;;;4996587;28;20040;-76
2021/12/17 06:12:57;;;;;;;4.65;1.60;;;7.70;99.90;;;;;;4996764;28;20029;-76
2021/12/17 06:15:23;;;;;;;5.50;1.35;;;7.70;99.90;;;;;;5013538;28;20375;-76
2021/12/17 06:17:50;;;;;;;6.07;1.23;;;7.70;99.90;;;;;;5014131;28;20025;-76
2021/12/17 06:20:17;;;;;;;8.50;1.70;;;7.70;99.90;;;;;;5012803;28;20025;-76
2021/12/17 06:22:42;;;;;;;4.70;1.10;;;7.70;99.90;;;;;;5012776;28;20037;-76
2021/12/17 06:25:10;;;;;;;4.72;1.30;;;7.70;99.90;;;;;;5014002;28;20486;-76
2021/12/17 06:27:35;;;;;;;3.83;1.20;;;7.70;99.90;;;;;;5012756;28;20029;-75
2021/12/17 06:30:03;;;;;;;3.45;1.15;;;7.70;99.90;;;;;;5013891;28;20029;-76
2021/12/17 06:32:28;;;;;;;6.40;1.35;;;7.70;99.90;;;;;;5013949;28;20022;-76
2021/12/17 06:34:54;;;;;;;4.40;1.52;;;7.70;99.90;;;;;;5013527;28;20105;-76
2021/12/17 06:37:20;;;;;;;6.82;2.03;;;7.70;99.90;;;;;;5013972;28;20026;-76
2021/12/17 06:39:47;;;;;;;8.05;2.35;;;7.80;99.90;;;;;;5014086;28;20022;-76
2021/12/17 06:42:13;;;;;;;8.30;1.95;;;7.80;99.90;;;;;;5013792;28;20045;-76
2021/12/17 06:44:40;;;;;;;5.75;1.80;;;7.80;99.90;;;;;;5013610;28;20026;-77
2021/12/17 06:47:14;;;;;;;7.07;2.10;;;7.70;99.90;;;;;;5013754;28;20045;-76
2021/12/17 07:11:16;;;;;;;6.97;2.25;;;7.80;99.90;;;;;;5014453;28;20104;-76
2021/12/17 07:20:03;;;;;;;8.52;1.60;;;7.70;99.90;;;;;;5013589;28;20076;-76
2021/12/17 07:21:58;;;;;;;8.85;2.05;;;7.80;99.90;;;;;;5013410;28;20065;-76
2021/12/17 07:31:30;;;;;;;6.10;1.75;;;7.80;99.90;;;;;;5016838;28;20369;-76
2021/12/17 07:40:11;;;;;;;6.78;2.15;;;7.80;99.90;;;;;;5017576;28;20030;-76
2021/12/17 07:42:37;;;;;;;5.05;1.52;;;7.80;99.90;;;;;;4998890;28;20052;-76
2021/12/17 07:45:04;;;;;;;7.55;2.60;;;7.80;99.90;;;;;;4999133;28;20376;-77
2021/12/17 07:47:30;;;;;;;6.82;2.15;;;7.80;99.90;;;;;;5016432;28;20032;-77
2021/12/17 07:49:55;;;;;;;6.45;2.30;;;7.80;99.90;;;;;;5016877;28;20108;-77
2021/12/17 07:52:21;;;;;;;8.50;2.67;;;7.80;99.90;;;;;;5016746;28;20072;-77
2021/12/17 07:54:47;;;;;;;9.45;2.33;;;7.80;99.90;;;;;;5016399;28;20041;-76
2021/12/17 07:57:12;;;;;;;9.20;2.28;;;7.80;99.90;;;;;;5016764;28;20085;-77
2021/12/17 07:59:39;;;;;;;6.03;2.00;;;7.80;99.90;;;;;;5016725;28;20022;-76
2021/12/17 08:02:06;;;;;;;6.18;2.20;;;7.80;99.90;;;;;;5016085;28;20021;-77
2021/12/17 08:04:32;;;;;;;9.68;3.22;;;7.80;99.90;;;;;;5016027;28;20022;-77
2021/12/17 08:06:57;;;;;;;11.20;2.88;;;7.80;99.90;;;;;;5016855;28;20555;-76
2021/12/17 08:09:24;;;;;;;7.18;2.63;;;7.80;99.90;;;;;;5016276;28;20038;-77
2021/12/17 08:11:56;;;;;;;8.85;3.55;;;7.80;99.90;;;;;;4995380;28;20026;-76
2021/12/17 08:14:22;;;;;;;6.00;1.85;;;7.80;99.90;;;;;;5005107;28;20040;-75
2021/12/17 08:17:26;;;;;;;9.45;2.97;;;7.80;99.90;;;;;;5015653;28;20104;-77
2021/12/17 08:25:17;;;;;;;6.45;2.20;;;7.90;99.90;;;;;;5016972;28;20398;-76
2021/12/17 08:32:39;;;;;;;13.30;3.13;;;7.90;99.90;;;;;;5017047;28;20026;-77
2021/12/17 08:35:06;;;;;;;9.50;2.42;;;8.00;99.90;;;;;;5016189;28;20034;-77
2021/12/17 08:37:32;;;;;;;7.93;2.20;;;7.90;99.90;;;;;;5015184;28;20034;-76
2021/12/17 08:39:58;;;;;;;9.73;3.42;;;8.00;99.90;;;;;;5016160;28;20117;-77
2021/12/17 08:42:23;;;;;;;17.13;4.28;;;7.90;99.90;;;;;;5016612;28;20108;-77
2021/12/17 08:44:49;;;;;;;8.50;2.08;;;8.00;99.90;;;;;;4998831;28;20022;-76
2021/12/17 08:47:14;;;;;;;9.68;2.58;;;7.90;99.90;;;;;;5016057;28;20026;-77
2021/12/17 08:49:41;;;;;;;9.90;3.10;;;8.00;99.90;;;;;;5008147;28;20026;-77
2021/12/17 08:52:08;;;;;;;10.45;3.22;;;8.00;99.90;;;;;;4998375;28;20033;-76
2021/12/17 08:54:34;;;;;;;13.68;3.00;;;8.00;99.90;;;;;;5016352;28;20106;-76
2021/12/17 08:57:01;;;;;;;8.70;2.90;;;8.00;99.90;;;;;;5015734;28;20057;-77
2021/12/17 08:59:29;;;;;;;7.88;2.92;;;8.00;99.90;;;;;;5015904;28;20112;-76
2021/12/17 09:01:55;;;;;;;10.00;3.22;;;8.00;99.90;;;;;;4997947;28;20486;-77
2021/12/17 09:04:20;;;;;;;8.73;2.53;;;8.00;99.90;;;;;;5015989;28;20031;-77
2021/12/17 09:06:46;;;;;;;11.07;3.25;;;8.10;99.90;;;;;;5015888;28;20601;-76
2021/12/17 09:09:17;;;;;;;9.93;2.97;;;8.10;99.90;;;;;;5015738;28;20045;-76
2021/12/17 09:11:42;;;;;;;9.10;2.47;;;8.20;99.90;;;;;;5015996;28;20029;-76
2021/12/17 09:14:09;;;;;;;9.02;3.50;;;8.20;99.90;;;;;;5015882;28;20026;-76
2021/12/17 09:16:35;;;;;;;8.90;2.92;;;8.20;99.90;;;;;;5015673;28;20491;-76
2021/12/17 09:19:03;;;;;;;9.95;3.38;;;8.20;99.90;;;;;;5015338;28;20033;-76
2021/12/17 09:21:29;;;;;;;11.00;2.87;;;8.30;99.90;;;;;;5015663;28;20053;-77
2021/12/17 09:23:55;;;;;;;9.25;2.58;;;8.30;99.90;;;;;;4997778;28;20280;-77
2021/12/17 09:26:22;;;;;;;8.90;2.85;;;8.30;99.90;;;;;;5015548;28;20025;-76
2021/12/17 09:28:48;;;;;;;8.35;2.25;;;8.30;99.90;;;;;;4997204;28;20033;-76
2021/12/17 09:31:14;;;;;;;11.05;3.22;;;8.30;99.90;;;;;;5015507;28;20028;-77
2021/12/17 09:33:42;;;;;;;9.55;2.42;;;8.30;99.90;;;;;;4997600;28;20108;-76
2021/12/17 09:36:08;;;;;;;9.40;3.00;;;8.30;99.90;;;;;;5015335;28;20429;-77
2021/12/17 09:38:33;;;;;;;10.20;2.78;;;8.70;99.90;;;;;;4997374;28;20026;-77
2021/12/17 09:40:59;;;;;;;9.10;2.30;;;8.40;99.90;;;;;;4997639;28;20052;-76
2021/12/17 09:43:25;;;;;;;10.55;3.67;;;8.50;99.90;;;;;;4998044;28;20110;-76
2021/12/17 09:45:51;;;;;;;8.43;2.63;;;8.50;99.90;;;;;;5015385;28;20025;-77
2021/12/17 09:48:19;;;;;;;13.27;3.90;;;8.50;99.90;;;;;;5014979;28;20032;-76
2021/12/17 09:50:45;;;;;;;7.53;3.05;;;8.60;99.90;;;;;;5013819;28;20120;-76
2021/12/17 09:53:11;;;;;;;8.60;2.83;;;8.60;99.90;;;;;;5014592;28;20096;-77
2021/12/17 09:55:37;;;;;;;13.70;3.72;;;8.60;99.90;;;;;;5015327;28;20025;-76
2021/12/17 09:58:03;;;;;;;12.88;2.92;;;8.60;99.90;;;;;;5014917;28;20026;-76
2021/12/17 10:00:29;;;;;;;6.00;1.73;;;8.60;99.90;;;;;;5014382;28;20044;-76
2021/12/17 10:02:54;;;;;;;6.25;1.52;;;8.60;99.90;;;;;;5015164;28;20022;-76
2021/12/17 10:05:26;;;;;;;6.65;1.60;;;8.60;99.90;;;;;;5013463;28;20041;-76
2021/12/17 10:08:05;;;;;;;3.30;0.95;;;8.70;99.90;;;;;;5014551;28;20372;-76
2021/12/17 10:10:43;;;;;;;6.28;1.45;;;8.70;99.90;;;;;;5014542;28;20029;-76
2021/12/17 10:13:25;;;;;;;2.00;0.60;;;8.70;99.90;;;;;;5014803;28;20079;-76
2021/12/17 10:15:55;;;;;;;4.40;0.73;;;8.80;99.90;;;;;;4995025;28;20089;-76
2021/12/17 10:18:35;;;;;;;3.58;1.73;;;8.80;99.90;;;;;;4995051;28;20022;-76
2021/12/17 10:21:07;;;;;;;6.50;1.38;;;8.80;99.90;;;;;;4980403;28;20033;-76
2021/12/17 10:23:33;;;;;;;3.97;1.08;;;8.80;99.90;;;;;;5013523;28;20501;-76
2021/12/17 10:26:00;;;;;;;3.83;0.80;;;8.70;99.90;;;;;;5014167;28;20367;-76
2021/12/17 10:28:26;;;;;;;3.58;1.00;;;8.70;99.90;;;;;;5013798;28;20026;-76
2021/12/17 10:30:53;;;;;;;2.60;0.80;;;8.70;99.90;;;;;;5013766;28;20037;-76
2021/12/17 10:33:27;;;;;;;5.50;1.05;;;8.80;99.90;;;;;;4996359;28;20022;-76
2021/12/17 10:35:56;;;;;;;2.03;0.75;;;8.80;99.90;;;;;;5014452;28;20029;-76
2021/12/17 10:38:25;;;;;;;;;;;8.80;99.90;;;;;;5013868;28;20519;-77
2021/12/17 10:40:59;;;;;;;2.85;0.65;;;8.80;99.90;;;;;;5013857;28;19984;-76
2021/12/17 10:48:35;;;;;;;2.75;0.28;;;8.80;99.90;;;;;;5013635;28;20034;-77
2021/12/17 10:53:53;;;;;;;1.15;0.30;;;8.80;99.90;;;;;;5013643;28;20040;-76
2021/12/17 10:56:45;;;;;;;3.92;0.43;;;8.80;99.90;;;;;;5012418;28;20033;-77
2021/12/17 10:59:18;;;;;;;2.72;0.20;;;8.70;99.90;;;;;;5007828;28;20048;-76
2021/12/17 11:01:49;;;;;;;1.70;0.28;;;8.70;99.90;;;;;;5011867;28;20487;-77
2021/12/17 11:04:30;;;;;;;2.78;0.85;;;8.70;99.90;;;;;;5013799;28;20029;-77
2021/12/17 11:06:58;;;;;;;2.22;0.60;;;8.70;99.90;;;;;;5013578;28;20037;-77
2021/12/17 11:09:55;;;;;;;8.37;1.73;;;8.70;99.90;;;;;;5013687;28;20112;-76
2021/12/17 11:12:25;;;;;;;4.60;1.13;;;8.70;99.90;;;;;;5013705;28;20602;-76
2021/12/17 11:14:51;;;;;;;3.17;0.90;;;8.70;99.90;;;;;;5013422;28;20436;-76
2021/12/17 11:17:20;;;;;;;3.17;1.08;;;8.70;99.90;;;;;;5013552;28;20057;-76
2021/12/17 11:19:50;;;;;;;2.17;0.30;;;8.70;99.90;;;;;;5013667;28;20133;-76
2021/12/17 11:22:17;;;;;;;2.60;0.82;;;8.80;99.90;;;;;;5013198;28;20421;-76
2021/12/17 11:24:43;;;;;;;1.85;0.30;;;8.80;99.90;;;;;;5013166;28;20014;-77
2021/12/17 11:27:09;;;;;;;2.17;0.43;;;8.80;99.90;;;;;;5013233;28;20026;-76
2021/12/17 11:29:35;;;;;;;2.35;0.35;;;8.80;99.90;;;;;;5012955;28;20052;-77
2021/12/17 11:32:01;;;;;;;3.90;1.52;;;8.90;99.90;;;;;;5013205;28;20030;-77
2021/12/17 11:34:30;;;;;;;1.92;0.40;;;8.90;99.90;;;;;;5011898;28;20385;-77
2021/12/17 11:37:00;;;;;;;5.28;0.43;;;8.80;99.90;;;;;;4992074;28;20076;-77
2021/12/17 11:39:46;;;;;;;2.38;0.20;;;8.80;99.90;;;;;;4992583;28;20062;-77
2021/12/17 11:42:35;;;;;;;1.30;0.17;;;8.80;99.90;;;;;;4997636;28;20076;-76
2021/12/17 11:47:48;;;;;;;2.17;0.20;;;8.80;99.90;;;;;;5007661;28;20041;-76
2021/12/17 11:50:18;;;;;;;1.00;0.08;;;8.80;99.90;;;;;;5013068;28;20026;-77
2021/12/17 11:52:47;;;;;;;1.30;0.10;;;8.80;99.90;;;;;;5013338;28;20486;-77
2021/12/17 11:55:25;;;;;;;2.22;0.45;;;8.80;99.90;;;;;;5011124;28;20168;-76
2021/12/17 11:57:54;;;;;;;1.23;0.30;;;8.80;99.90;;;;;;5013941;28;20030;-76
2021/12/17 12:00:28;;;;;;;1.73;0.30;;;8.80;99.90;;;;;;5013409;28;20022;-77
2021/12/17 12:03:10;;;;;;;1.42;0.20;;;8.80;99.90;;;;;;5014198;28;20099;-77
2021/12/17 12:05:38;;;;;;;1.63;0.30;;;8.80;99.90;;;;;;5013190;28;20029;-76
2021/12/17 12:08:28;;;;;;;3.38;0.55;;;8.80;99.90;;;;;;5013519;28;20502;-76
2021/12/17 12:11:13;;;;;;;1.77;0.35;;;8.80;99.90;;;;;;5014004;28;20072;-77
2021/12/17 12:13:46;;;;;;;3.70;1.05;;;8.80;99.90;;;;;;5016355;28;20399;-76
2021/12/17 12:16:17;;;;;;;2.67;0.30;;;8.80;99.90;;;;;;5015984;28;20509;-77
2021/12/17 12:19:07;;;;;;;1.27;0.35;;;8.80;99.90;;;;;;5017514;28;20041;-77
2021/12/17 12:21:34;;;;;;;1.55;0.30;;;8.80;99.90;;;;;;5016796;28;20030;-77
2021/12/17 12:24:12;;;;;;;4.45;1.38;;;8.70;99.90;;;;;;5017021;28;20018;-76
2021/12/17 12:26:46;;;;;;;2.45;0.47;;;8.80;99.90;;;;;;5016505;28;20025;-77
2021/12/17 12:29:23;;;;;;;2.28;0.63;;;8.80;99.90;;;;;;5016050;28;20499;-76
2021/12/17 12:31:55;;;;;;;3.58;0.73;;;8.80;99.90;;;;;;5000099;28;20022;-77
2021/12/17 12:34:33;;;;;;;2.13;0.65;;;8.80;99.90;;;;;;5016015;28;20018;-77
2021/12/17 12:37:08;;;;;;;1.67;0.38;;;8.80;99.90;;;;;;5015227;28;20117;-77
2021/12/17 12:39:42;;;;;;;1.85;0.47;;;8.80;99.90;;;;;;5016242;28;20026;-77
2021/12/17 12:42:22;;;;;;;2.28;0.47;;;8.80;99.90;;;;;;4998463;28;20025;-77
2021/12/17 12:44:47;;;;;;;3.47;0.77;;;8.80;99.90;;;;;;5015702;28;20478;-77
2021/12/17 12:47:39;;;;;;;3.08;1.20;;;8.80;99.90;;;;;;5015573;28;20034;-77
2021/12/17 12:50:15;;;;;;;3.08;0.50;;;8.80;99.90;;;;;;4985701;28;20033;-76
2021/12/17 12:52:46;;;;;;;2.13;0.28;;;8.80;99.90;;;;;;5016146;28;20037;-77
2021/12/17 12:55:14;;;;;;;4.30;0.73;;;8.80;99.90;;;;;;4998115;28;20486;-76
2021/12/17 12:57:54;;;;;;;2.40;0.63;;;8.80;99.90;;;;;;4998188;28;20022;-76
2021/12/17 13:00:27;;;;;;;5.40;1.05;;;8.80;99.90;;;;;;5014470;28;20014;-76
2021/12/17 13:02:59;;;;;;;2.90;0.60;;;8.80;99.90;;;;;;5015884;28;20053;-76
2021/12/17 13:05:25;;;;;;;2.85;0.75;;;8.80;99.90;;;;;;4998111;28;20053;-77
2021/12/17 13:07:56;;;;;;;4.68;0.77;;;8.90;99.90;;;;;;5013938;28;20037;-76
2021/12/17 13:10:29;;;;;;;2.45;0.73;;;9.00;99.90;;;;;;5015490;28;20505;-76
2021/12/17 13:13:03;;;;;;;4.35;0.85;;;9.10;99.90;;;;;;5015830;28;20036;-77
2021/12/17 13:21:05;;;;;;;1.67;0.15;;;9.30;99.90;;;;;;5015857;28;20045;-76
2021/12/17 13:23:38;;;;;;;1.53;0.40;;;9.30;99.90;;;;;;5014939;28;20030;-77
2021/12/17 13:26:07;;;;;;;1.40;0.30;;;9.40;99.90;;;;;;5015240;28;20014;-77
2021/12/17 13:29:00;;;;;;;1.17;0.30;;;9.40;99.90;;;;;;5015159;28;20038;-76
2021/12/17 13:31:48;;;;;;;2.10;0.22;;;9.30;99.90;;;;;;5015017;28;20026;-77
2021/12/17 13:34:27;;;;;;;1.15;0.25;;;9.40;99.90;;;;;;5014861;28;20057;-77
2021/12/17 13:36:58;;;;;;;1.25;0.30;;;9.40;99.90;;;;;;5014987;28;20137;-77
2021/12/17 13:39:26;;;;;;;2.00;0.57;;;9.40;99.90;;;;;;5015228;28;20429;-77
2021/12/17 13:41:52;;;;;;;2.45;0.90;;;9.40;99.90;;;;;;5015002;28;20022;-76
2021/12/17 13:44:57;;;;;;;1.17;0.10;;;9.40;99.90;;;;;;5014827;28;20017;-77
2021/12/17 13:47:25;;;;;;;1.15;0.20;;;9.30;99.90;;;;;;4915028;29;20068;-76
2021/12/17 13:50:04;;;;;;;3.05;0.20;;;9.30;99.90;;;;;;4998035;28;20033;-76
2021/12/17 13:52:32;;;;;;;0.85;0.20;;;9.30;99.90;;;;;;4998042;28;20030;-75
2021/12/17 13:55:00;;;;;;;1.65;0.10;;;9.30;99.90;;;;;;4998320;28;20037;-77
2021/12/17 13:57:29;;;;;;;3.20;0.47;;;9.30;99.90;;;;;;5015997;28;20471;-77
2021/12/17 14:00:03;;;;;;;;;;;9.30;99.90;;;;;;4998016;28;20014;-77
2021/12/17 14:02:33;;;;;;;10.52;3.03;;;9.30;99.90;;;;;;5014314;28;20282;-77
2021/12/17 14:05:11;;;;;;;14.90;3.13;;;9.30;99.90;;;;;;5014243;28;20032;-76
2021/12/17 14:07:38;;;;;;;18.07;4.13;;;9.30;99.90;;;;;;5014211;28;20038;-76
2021/12/17 14:10:15;;;;;;;5.13;0.85;;;9.30;99.90;;;;;;5014304;28;20029;-77
2021/12/17 14:12:42;;;;;;;4.57;0.13;;;9.30;99.90;;;;;;5014505;28;20030;-77
2021/12/17 14:15:16;;;;;;;0.88;0.17;;;9.20;99.90;;;;;;5014872;28;20028;-77
2021/12/17 14:17:46;;;;;;;1.30;0.20;;;9.20;99.90;;;;;;5013272;28;20048;-77
2021/12/17 14:20:25;;;;;;;1.58;0.32;;;9.30;99.90;;;;;;5014654;28;20022;-76
2021/12/17 14:22:56;;;;;;;1.20;0.10;;;9.20;99.90;;;;;;4996836;28;20022;-77
2021/12/17 14:25:36;;;;;;;2.20;0.47;;;9.20;99.90;;;;;;5013226;28;20034;-77
2021/12/17 14:28:11;;;;;;;1.75;0.80;;;9.20;99.90;;;;;;5014463;28;20088;-77
2021/12/17 14:30:38;;;;;;;0.88;0.28;;;9.20;99.90;;;;;;5014752;28;20507;-77
2021/12/17 14:33:09;;;;;;;1.10;0.13;;;9.20;99.90;;;;;;4996826;28;20022;-77
2021/12/17 14:35:57;;;;;;;2.55;0.15;;;9.20;99.90;;;;;;4995892;28;20026;-77
2021/12/17 14:38:37;;;;;;;1.63;0.20;;;9.20;99.90;;;;;;5013269;28;20026;-76
2021/12/17 14:41:05;;;;;;;1.55;0.30;;;9.20;99.90;;;;;;5013059;28;20018;-77
2021/12/17 14:43:35;;;;;;;0.88;0.30;;;9.20;99.90;;;;;;4996830;28;20532;-77
2021/12/17 14:46:08;;;;;;;1.58;0.30;;;9.20;99.90;;;;;;4996817;28;20028;-77
2021/12/17 14:48:44;;;;;;;2.05;0.50;;;9.20;99.90;;;;;;4996486;28;20160;-77
2021/12/17 15:04:42;;;;;;;3.00;0.88;;;9.10;99.90;;;;;;5014705;28;20033;-77
2021/12/17 15:07:08;;;;;;;1.73;0.40;;;9.10;99.90;;;;;;5014162;28;20034;-77
2021/12/17 15:09:38;;;;;;;1.95;0.63;;;9.10;99.90;;;;;;5013778;28;20022;-77
2021/12/17 15:12:13;;;;;;;2.05;0.88;;;9.10;99.90;;;;;;4996754;28;20076;-77
2021/12/17 15:14:39;;;;;;;1.65;0.57;;;9.10;99.90;;;;;;5013736;28;20433;-77
2021/12/17 15:17:04;;;;;;;1.77;0.68;;;9.10;99.90;;;;;;4996412;28;20026;-77
2021/12/17 15:19:30;;;;;;;2.35;1.25;;;9.00;99.90;;;;;;5013784;28;20418;-77
2021/12/17 15:21:56;;;;;;;6.30;1.30;;;9.00;99.90;;;;;;5012546;28;20030;-77
2021/12/17 15:24:22;;;;;;;2.40;1.13;;;9.00;99.90;;;;;;5014089;28;20033;-76
2021/12/17 15:26:47;;;;;;;3.25;0.50;;;9.00;99.90;;;;;;5013371;28;20525;-76
2021/12/17 15:29:13;;;;;;;2.70;1.13;;;8.90;99.90;;;;;;5013255;28;20058;-77
2021/12/17 15:31:38;;;;;;;2.33;0.88;;;8.90;99.90;;;;;;5013594;28;20037;-77
2021/12/17 15:34:04;;;;;;;2.08;0.60;;;8.90;99.90;;;;;;5013021;28;20022;-76
2021/12/17 15:36:29;;;;;;;3.95;0.95;;;8.90;99.90;;;;;;5012927;28;20028;-76
2021/12/17 15:38:55;;;;;;;3.45;1.10;;;8.90;99.90;;;;;;5013243;28;20100;-77
2021/12/17 15:41:20;;;;;;;4.32;0.90;;;8.90;99.90;;;;;;4996565;28;20035;-77
2021/12/17 15:43:46;;;;;;;2.60;0.60;;;8.90;99.90;;;;;;5012918;28;20038;-77
2021/12/17 15:46:12;;;;;;;2.72;1.00;;;8.80;99.90;;;;;;4996682;28;20029;-77
2021/12/17 15:48:37;;;;;;;2.85;0.55;;;8.80;99.90;;;;;;5017022;28;20028;-77
2021/12/17 15:51:03;;;;;;;2.63;0.88;;;8.80;99.90;;;;;;5017150;28;20494;-77
2021/12/17 15:53:30;;;;;;;4.93;1.08;;;8.80;99.90;;;;;;4999214;28;20030;-76
2021/12/17 15:55:56;;;;;;;2.75;1.15;;;8.80;99.90;;;;;;4999455;28;20076;-77
2021/12/17 15:58:21;;;;;;;11.10;3.38;;;8.80;99.90;;;;;;5016493;28;20479;-77
2021/12/17 16:00:48;;;;;;;11.55;5.25;;;8.80;99.90;;;;;;5016445;28;20114;-76
2021/12/17 16:03:15;;;;;;;5.38;2.30;;;8.70;99.90;;;;;;5017126;28;20026;-76
2021/12/17 16:05:41;;;;;;;6.47;1.92;;;8.70;99.90;;;;;;5016390;28;20109;-77
2021/12/17 16:08:06;;;;;;;8.35;3.15;;;8.70;99.90;;;;;;5017012;28;20061;-76
2021/12/17 16:21:14;;;;;;;4.70;1.63;;;8.70;99.90;;;;;;5016631;28;20034;-76
2021/12/17 16:23:48;;;;;;;3.95;1.48;;;8.70;99.90;;;;;;5016193;28;20521;-76
2021/12/17 16:26:16;;;;;;;4.57;1.15;;;8.70;99.90;;;;;;4998695;28;20072;-76
2021/12/17 16:28:45;;;;;;;7.72;2.25;;;8.60;99.90;;;;;;5016979;28;20022;-77
2021/12/17 16:31:15;;;;;;;4.15;2.20;;;8.70;99.90;;;;;;5017217;28;20033;-75
2021/12/17 16:33:42;;;;;;;6.85;2.90;;;8.70;99.90;;;;;;4998918;28;20498;-77
2021/12/17 16:36:08;;;;;;;5.40;2.15;;;8.70;99.90;;;;;;5016949;28;20475;-76
2021/12/17 16:38:35;;;;;;;7.78;3.72;;;8.70;99.90;;;;;;5016865;28;20041;-75
2021/12/17 16:41:02;;;;;;;6.85;2.40;;;8.70;99.90;;;;;;5017078;28;20025;-77
2021/12/17 16:43:29;;;;;;;6.68;2.85;;;8.70;99.90;;;;;;5017035;28;20014;-77
2021/12/17 16:46:23;;;;;;;7.53;2.33;;;8.70;99.90;;;;;;5016890;28;20022;-76
2021/12/17 16:48:51;;;;;;;6.07;2.47;;;8.70;99.90;;;;;;5015141;28;20022;-76
2021/12/17 16:51:17;;;;;;;10.02;4.32;;;8.60;99.90;;;;;;5013829;28;20037;-77
2021/12/17 16:53:45;;;;;;;8.75;3.83;;;8.70;99.90;;;;;;5014025;28;20026;-77
2021/12/17 16:56:11;;;;;;;10.80;4.15;;;8.70;99.90;;;;;;5015405;28;20037;-76
2021/12/17 16:58:37;;;;;;;9.57;4.20;;;8.60;99.90;;;;;;4996891;28;20383;-76
2021/12/17 17:01:03;;;;;;;6.53;2.65;;;8.60;99.90;;;;;;4997843;28;20032;-75